Time;durP1;ratioP1;P1;durP2;ratioP2;P2;SDS_P1;SDS_P2;PMS_P1;PMS_P2;Temp;Humidity;BMP_temperature;BMP_pressure;BME280_temperature;BME280_humidity;BME280_pressure;Samples;Min_cycle;Max_cycle;Signal;HPM_P1;HPM_P2
2023/03/06 00:00:49;;;;;;;;;;;;;;;;;;5097448;28;19916;-67
2023/03/06 00:03:15;;;;;;;;;;;;;;;;;;5097968;28;20283;-67
2023/03/06 00:05:41;;;;;;;;;;;;;;;;;;5097092;28;20371;-67
2023/03/06 00:08:07;;;;;;;;;;;;;;;;;;5097877;28;20382;-67
2023/03/06 00:10:33;;;;;;;;;;;;;;;;;;5095950;28;20012;-67
2023/03/06 00:12:59;;;;;;;;;;;;;;;;;;5096857;28;19934;-67
2023/03/06 00:15:25;;;;;;;;;;;;;;;;;;5095923;28;20433;-67
2023/03/06 00:17:51;;;;;;;;;;;;;;;;;;5097097;28;20288;-67
2023/03/06 00:20:17;;;;;;;;;;;;;;;;;;5096574;28;19927;-67
2023/03/06 00:22:43;;;;;;;;;;;;;;;;;;5096107;28;19914;-69
2023/03/06 00:25:09;;;;;;;;;;;;;;;;;;5095422;28;19955;-67
2023/03/06 00:27:35;;;;;;;;;;;;;;;;;;5095842;28;19953;-67
2023/03/06 00:30:01;;;;;;;;;;;;;;;;;;5097046;28;20002;-67
2023/03/06 00:32:27;;;;;;;;;;;;;;;;;;5096610;28;19912;-67
2023/03/06 00:34:53;;;;;;;;;;;;;;;;;;5097542;28;19912;-67
2023/03/06 00:37:19;;;;;;;;;;;;;;;;;;5095629;28;19942;-67
2023/03/06 00:39:45;;;;;;;;;;;;;;;;;;5095102;28;20019;-67
2023/03/06 00:42:11;;;;;;;;;;;;;;;;;;5096839;28;19915;-68
2023/03/06 00:44:37;;;;;;;;;;;;;;;;;;5097191;28;20269;-68
2023/03/06 00:47:03;;;;;;;;;;;;;;;;;;5096258;28;20292;-67
2023/03/06 00:49:29;;;;;;;;;;;;;;;;;;5096657;28;20276;-67
2023/03/06 00:51:55;;;;;;;;;;;;;;;;;;5096119;28;19931;-67
2023/03/06 00:54:21;;;;;;;;;;;;;;;;;;5096070;28;19908;-68
2023/03/06 00:56:47;;;;;;;;;;;;;;;;;;5096426;28;19908;-68
2023/03/06 00:59:13;;;;;;;;;;;;;;;;;;5096347;28;19935;-68
2023/03/06 01:01:39;;;;;;;;;;;;;;;;;;5095968;28;19912;-68
2023/03/06 01:04:04;;;;;;;;;;;;;;;;;;5096350;28;19914;-68
2023/03/06 01:06:30;;;;;;;;;;;;;;;;;;5095078;28;19911;-68
2023/03/06 01:08:56;;;;;;;;;;;;;;;;;;5095888;28;20000;-68
2023/03/06 01:11:22;;;;;;;;;;;;;;;;;;5096791;28;19908;-68
2023/03/06 01:13:48;;;;;;;;;;;;;;;;;;5094990;28;20406;-69
2023/03/06 01:16:14;;;;;;;;;;;;;;;;;;5095713;28;20292;-68
2023/03/06 01:18:40;;;;;;;;;;;;;;;;;;5094575;28;19908;-68
2023/03/06 01:21:06;;;;;;;;;;;;;;;;;;5096033;28;19963;-68
2023/03/06 01:23:32;;;;;;;;;;;;;;;;;;5095547;28;19908;-68
2023/03/06 01:25:58;;;;;;;;;;;;;;;;;;5096225;28;19912;-68
2023/03/06 01:28:24;;;;;;;;;;;;;;;;;;5095432;28;19946;-68
2023/03/06 01:30:50;;;;;;;;;;;;;;;;;;5094554;28;19914;-68
2023/03/06 01:33:16;;;;;;;;;;;;;;;;;;5094501;28;20359;-68
2023/03/06 01:35:42;;;;;;;;;;;;;;;;;;5095835;28;20303;-68
2023/03/06 01:38:08;;;;;;;;;;;;;;;;;;5095699;28;20303;-68
2023/03/06 01:40:33;;;;;;;;;;;;;;;;;;5095579;28;20280;-68
2023/03/06 01:42:59;;;;;;;;;;;;;;;;;;5095137;28;20291;-68
2023/03/06 01:45:25;;;;;;;;;;;;;;;;;;5095437;28;20253;-68
2023/03/06 01:47:51;;;;;;;;;;;;;;;;;;5095447;28;19908;-68
2023/03/06 01:50:17;;;;;;;;;;;;;;;;;;5093778;28;19912;-68
2023/03/06 01:52:43;;;;;;;;;;;;;;;;;;5094150;28;19931;-67
2023/03/06 01:55:09;;;;;;;;;;;;;;;;;;5093975;28;19908;-67
2023/03/06 01:57:35;;;;;;;;;;;;;;;;;;5095163;28;19936;-67
2023/03/06 02:00:01;;;;;;;;;;;;;;;;;;5095183;28;20406;-67
2023/03/06 02:02:27;;;;;;;;;;;;;;;;;;5093974;28;20352;-67
2023/03/06 02:04:53;;;;;;;;;;;;;;;;;;5092658;28;20327;-68
2023/03/06 02:07:19;;;;;;;;;;;;;;;;;;5095075;28;20310;-67
2023/03/06 02:09:45;;;;;;;;;;;;;;;;;;5095107;28;20264;-68
2023/03/06 02:12:11;;;;;;;;;;;;;;;;;;5093341;28;19980;-68
2023/03/06 02:14:36;;;;;;;;;;;;;;;;;;5094975;28;19908;-68
2023/03/06 02:17:02;;;;;;;;;;;;;;;;;;5093891;28;19915;-67
2023/03/06 02:19:28;;;;;;;;;;;;;;;;;;5094262;28;19920;-67
2023/03/06 02:21:54;;;;;;;;;;;;;;;;;;5094843;28;19909;-68
2023/03/06 02:24:20;;;;;;;;;;;;;;;;;;5093501;28;19937;-67
2023/03/06 02:26:46;;;;;;;;;;;;;;;;;;5093015;28;19908;-67
2023/03/06 02:29:12;;;;;;;;;;;;;;;;;;5094644;28;19909;-67
2023/03/06 02:31:38;;;;;;;;;;;;;;;;;;5094661;28;20272;-68
2023/03/06 02:34:04;;;;;;;;;;;;;;;;;;5094489;28;19908;-68
2023/03/06 02:36:30;;;;;;;;;;;;;;;;;;5094554;28;20020;-67
2023/03/06 02:38:56;;;;;;;;;;;;;;;;;;5094103;28;19974;-67
2023/03/06 02:41:23;;;;;;;;;;;;;;;;;;5093187;28;20387;-68
2023/03/06 02:43:49;;;;;;;;;;;;;;;;;;5094425;28;19908;-67
2023/03/06 02:46:15;;;;;;;;;;;;;;;;;;5094011;28;19915;-67
2023/03/06 02:48:41;;;;;;;;;;;;;;;;;;5094404;28;19915;-67
2023/03/06 02:51:06;;;;;;;;;;;;;;;;;;5094638;28;19908;-67
2023/03/06 02:53:32;;;;;;;;;;;;;;;;;;5092710;28;19959;-68
2023/03/06 02:55:58;;;;;;;;;;;;;;;;;;5094537;28;19915;-68
2023/03/06 02:58:24;;;;;;;;;;;;;;;;;;5094214;28;19908;-68
2023/03/06 03:00:50;;;;;;;;;;;;;;;;;;5093879;28;19952;-68
2023/03/06 03:03:16;;;;;;;;;;;;;;;;;;5094154;28;19916;-68
2023/03/06 03:05:42;;;;;;;;;;;;;;;;;;5094146;28;20355;-68
2023/03/06 03:08:08;;;;;;;;;;;;;;;;;;5092429;28;20372;-68
2023/03/06 03:10:34;;;;;;;;;;;;;;;;;;5094047;28;20403;-68
2023/03/06 03:13:00;;;;;;;;;;;;;;;;;;5094052;28;19934;-68
2023/03/06 03:15:26;;;;;;;;;;;;;;;;;;5092138;28;19916;-68
2023/03/06 03:17:52;;;;;;;;;;;;;;;;;;5094299;28;19948;-68
2023/03/06 03:20:18;;;;;;;;;;;;;;;;;;5092359;28;20375;-67
2023/03/06 03:22:44;;;;;;;;;;;;;;;;;;5093691;28;20380;-68
2023/03/06 03:25:10;;;;;;;;;;;;;;;;;;5093938;28;20267;-68
2023/03/06 03:27:35;;;;;;;;;;;;;;;;;;5093869;28;20253;-66
2023/03/06 03:30:02;;;;;;;;;;;;;;;;;;5093510;28;19910;-66
2023/03/06 03:32:28;;;;;;;;;;;;;;;;;;5093790;28;20343;-67
2023/03/06 03:34:53;;;;;;;;;;;;;;;;;;5094088;28;19908;-67
2023/03/06 03:37:19;;;;;;;;;;;;;;;;;;5093447;28;19908;-67
2023/03/06 03:39:45;;;;;;;;;;;;;;;;;;5092433;28;19958;-67
2023/03/06 03:42:11;;;;;;;;;;;;;;;;;;5093424;28;19908;-67
2023/03/06 03:44:37;;;;;;;;;;;;;;;;;;5094038;28;19912;-66
2023/03/06 03:47:03;;;;;;;;;;;;;;;;;;5093987;28;19915;-66
2023/03/06 03:49:29;;;;;;;;;;;;;;;;;;5092074;28;20043;-67
2023/03/06 03:51:55;;;;;;;;;;;;;;;;;;5093907;28;19908;-67
2023/03/06 03:54:21;;;;;;;;;;;;;;;;;;5094184;28;20387;-67
2023/03/06 03:56:47;;;;;;;;;;;;;;;;;;5091992;28;20353;-67
2023/03/06 03:59:13;;;;;;;;;;;;;;;;;;5093766;28;19915;-67
2023/03/06 04:01:39;;;;;;;;;;;;;;;;;;5093580;28;19925;-67
2023/03/06 04:04:05;;;;;;;;;;;;;;;;;;5093213;28;19951;-67
2023/03/06 04:06:31;;;;;;;;;;;;;;;;;;5093530;28;19908;-67
2023/03/06 04:08:57;;;;;;;;;;;;;;;;;;5093525;28;19923;-67
2023/03/06 04:11:23;;;;;;;;;;;;;;;;;;5093036;28;19908;-67
2023/03/06 04:13:49;;;;;;;;;;;;;;;;;;5092268;28;19962;-67
2023/03/06 04:16:15;;;;;;;;;;;;;;;;;;5093371;28;19908;-67
2023/03/06 04:18:41;;;;;;;;;;;;;;;;;;5091586;28;20004;-67
2023/03/06 04:21:07;;;;;;;;;;;;;;;;;;5092072;28;19963;-67
2023/03/06 04:23:33;;;;;;;;;;;;;;;;;;5093608;28;19908;-67
2023/03/06 04:25:59;;;;;;;;;;;;;;;;;;5093082;28;19998;-67
2023/03/06 04:28:26;;;;;;;;;;;;;;;;;;5096379;28;20002;-67
2023/03/06 04:30:51;;;;;;;;;;;;;;;;;;5097256;28;19908;-67
2023/03/06 04:33:17;;;;;;;;;;;;;;;;;;5096509;28;19913;-68
2023/03/06 04:35:43;;;;;;;;;;;;;;;;;;5095610;28;19915;-68
2023/03/06 04:38:09;;;;;;;;;;;;;;;;;;5096876;28;19954;-68
2023/03/06 04:40:35;;;;;;;;;;;;;;;;;;5096346;28;20013;-68
2023/03/06 04:43:01;;;;;;;;;;;;;;;;;;5095561;28;19916;-68
2023/03/06 04:45:27;;;;;;;;;;;;;;;;;;5096642;28;20276;-68
2023/03/06 04:47:53;;;;;;;;;;;;;;;;;;5096710;28;20046;-67
2023/03/06 04:50:19;;;;;;;;;;;;;;;;;;5096935;28;19908;-67
2023/03/06 04:52:45;;;;;;;;;;;;;;;;;;5096165;28;20352;-68
2023/03/06 04:55:11;;;;;;;;;;;;;;;;;;5097149;28;20305;-68
2023/03/06 04:57:37;;;;;;;;;;;;;;;;;;5095423;28;19908;-68
2023/03/06 05:00:03;;;;;;;;;;;;;;;;;;5094668;28;19938;-68
2023/03/06 05:02:29;;;;;;;;;;;;;;;;;;5096333;28;19986;-68
2023/03/06 05:04:55;;;;;;;;;;;;;;;;;;5096372;28;19908;-68
2023/03/06 05:07:21;;;;;;;;;;;;;;;;;;5094536;28;20356;-68
2023/03/06 05:09:47;;;;;;;;;;;;;;;;;;5096283;28;20302;-68
2023/03/06 05:12:13;;;;;;;;;;;;;;;;;;5094948;28;19908;-69
2023/03/06 05:14:39;;;;;;;;;;;;;;;;;;5095684;28;19908;-68
2023/03/06 05:17:05;;;;;;;;;;;;;;;;;;5095965;28;19915;-69
2023/03/06 05:19:31;;;;;;;;;;;;;;;;;;5095817;28;20410;-68
2023/03/06 05:21:57;;;;;;;;;;;;;;;;;;5094253;28;20272;-68
2023/03/06 05:24:22;;;;;;;;;;;;;;;;;;5096207;28;19915;-68
2023/03/06 05:26:48;;;;;;;;;;;;;;;;;;5094553;28;19908;-68
2023/03/06 05:29:14;;;;;;;;;;;;;;;;;;5094208;28;19908;-68
2023/03/06 05:31:40;;;;;;;;;;;;;;;;;;5086163;28;19912;-67
2023/03/06 05:34:06;;;;;;;;;;;;;;;;;;5095227;28;19908;-68
2023/03/06 05:36:32;;;;;;;;;;;;;;;;;;5093396;28;19915;-68
2023/03/06 05:38:58;;;;;;;;;;;;;;;;;;5095627;28;19912;-68
2023/03/06 05:41:24;;;;;;;;;;;;;;;;;;5095657;28;20361;-68
2023/03/06 05:43:50;;;;;;;;;;;;;;;;;;5095189;28;20272;-68
2023/03/06 05:46:16;;;;;;;;;;;;;;;;;;5095517;28;20330;-66
2023/03/06 05:48:42;;;;;;;;;;;;;;;;;;5093435;28;19908;-66
2023/03/06 05:51:08;;;;;;;;;;;;;;;;;;5093269;28;19912;-68
2023/03/06 05:53:34;;;;;;;;;;;;;;;;;;5093095;28;19931;-67
2023/03/06 05:56:00;;;;;;;;;;;;;;;;;;5092892;28;19916;-67
2023/03/06 05:58:26;;;;;;;;;;;;;;;;;;5093200;28;19908;-67
2023/03/06 06:00:52;;;;;;;;;;;;;;;;;;5093955;28;20025;-67
2023/03/06 06:03:18;;;;;;;;;;;;;;;;;;5093965;28;20331;-68
2023/03/06 06:05:44;;;;;;;;;;;;;;;;;;5093726;28;19913;-69
2023/03/06 06:08:10;;;;;;;;;;;;;;;;;;5094225;28;19989;-72
2023/03/06 06:10:36;;;;;;;;;;;;;;;;;;5094444;28;19939;-73
2023/03/06 06:13:02;;;;;;;;;;;;;;;;;;5094646;28;19908;-73
2023/03/06 06:15:28;;;;;;;;;;;;;;;;;;5095730;28;19916;-73
2023/03/06 06:17:54;;;;;;;;;;;;;;;;;;5094240;28;19908;-73
2023/03/06 06:20:20;;;;;;;;;;;;;;;;;;5094258;28;19920;-72
2023/03/06 06:22:45;;;;;;;;;;;;;;;;;;5085129;28;19919;-68
2023/03/06 06:25:11;;;;;;;;;;;;;;;;;;5077011;28;19913;-67
2023/03/06 06:27:37;;;;;;;;;;;;;;;;;;5065630;28;19967;-67
2023/03/06 06:30:03;;;;;;;;;;;;;;;;;;5051881;28;19961;-66
2023/03/06 06:32:29;;;;;;;;;;;;;;;;;;5069137;28;19912;-66
2023/03/06 06:34:55;;;;;;;;;;;;;;;;;;5067439;28;20011;-69
2023/03/06 06:37:21;;;;;;;;;;;;;;;;;;5069128;28;19912;-66
2023/03/06 06:39:47;;;;;;;;;;;;;;;;;;5067908;28;19947;-68
2023/03/06 06:42:13;;;;;;;;;;;;;;;;;;5051668;28;19955;-68
2023/03/06 06:44:39;;;;;;;;;;;;;;;;;;5050599;28;19961;-67
2023/03/06 06:47:05;;;;;;;;;;;;;;;;;;5066679;28;19919;-67
2023/03/06 06:49:31;;;;;;;;;;;;;;;;;;5068169;28;19917;-68
2023/03/06 06:51:57;;;;;;;;;;;;;;;;;;5069877;28;19915;-67
2023/03/06 06:54:23;;;;;;;;;;;;;;;;;;5070797;28;20462;-66
2023/03/06 06:56:49;;;;;;;;;;;;;;;;;;5068384;28;19919;-68
2023/03/06 06:59:22;;;;;;;;;;;;;;;;;;5069895;28;20208;-68
2023/03/06 07:01:48;;;;;;;;;;;;;;;;;;5072427;28;19951;-68
2023/03/06 07:04:14;;;;;;;;;;;;;;;;;;5073489;28;20006;-68
2023/03/06 07:06:40;;;;;;;;;;;;;;;;;;5071738;28;19912;-68
2023/03/06 07:09:07;;;;;;;;;;;;;;;;;;5062690;28;19920;-68
2023/03/06 07:11:38;;;;;;;;;;;;;;;;;;5069013;28;20284;-68
2023/03/06 07:14:10;;;;;;;;;;;;;;;;;;5071586;28;19916;-68
2023/03/06 07:16:36;;;;;;;;;;;;;;;;;;5080642;28;19917;-67
2023/03/06 07:19:02;;;;;;;;;;;;;;;;;;5074822;28;19916;-67
2023/03/06 07:21:28;;;;;;;;;;;;;;;;;;5091137;28;19920;-68
2023/03/06 07:23:56;;;;;;;;;;;;;;;;;;5090253;28;19915;-68
2023/03/06 07:26:22;;;;;;;;;;;;;;;;;;5079208;28;19912;-66
2023/03/06 07:28:56;;;;;;;;;;;;;;;;;;5090132;28;19916;-68
2023/03/06 07:31:23;;;;;;;;;;;;;;;;;;5091399;28;19912;-67
2023/03/06 07:33:49;;;;;;;;;;;;;;;;;;5080417;28;19919;-67
2023/03/06 07:36:24;;;;;;;;;;;;;;;;;;5090735;28;19908;-68
2023/03/06 07:38:50;;;;;;;;;;;;;;;;;;5091585;28;19908;-67
2023/03/06 07:41:17;;;;;;;;;;;;;;;;;;5106122;28;20024;-67
2023/03/06 07:43:43;;;;;;;;;;;;;;;;;;5112139;28;20343;-67
2023/03/06 07:46:13;;;;;;;;;;;;;;;;;;5089529;28;20287;-68
2023/03/06 07:48:44;;;;;;;;;;;;;;;;;;5088695;28;19954;-68
2023/03/06 07:51:10;;;;;;;;;;;;;;;;;;5084922;28;19959;-69
2023/03/06 07:53:36;;;;;;;;;;;;;;;;;;5092236;28;19994;-67
2023/03/06 07:56:07;;;;;;;;;;;;;;;;;;5088194;28;20550;-67
2023/03/06 07:58:33;;;;;;;;;;;;;;;;;;5083615;28;19912;-68
2023/03/06 08:00:59;;;;;;;;;;;;;;;;;;5078435;28;20314;-68
2023/03/06 08:03:25;;;;;;;;;;;;;;;;;;5093688;28;19911;-68
2023/03/06 08:05:51;;;;;;;;;;;;;;;;;;5113774;28;19930;-68
2023/03/06 08:08:17;;;;;;;;;;;;;;;;;;5112201;28;19914;-69
2023/03/06 08:10:43;;;;;;;;;;;;;;;;;;5110922;28;19908;-66
2023/03/06 08:13:09;;;;;;;;;;;;;;;;;;5098368;28;19942;-67
2023/03/06 08:15:35;;;;;;;;;;;;;;;;;;5089414;28;20419;-69
2023/03/06 08:18:01;;;;;;;;;;;;;;;;;;5089909;28;19909;-69
2023/03/06 08:20:27;;;;;;;;;;;;;;;;;;5089560;28;20433;-68
2023/03/06 08:22:53;;;;;;;;;;;;;;;;;;5073774;28;19936;-68
2023/03/06 08:25:19;;;;;;;;;;;;;;;;;;5052815;28;20347;-68
2023/03/06 08:27:46;;;;;;;;;;;;;;;;;;5091158;28;19912;-69
2023/03/06 08:30:12;;;;;;;;;;;;;;;;;;5057638;28;19923;-69
2023/03/06 08:32:38;;;;;;;;;;;;;;;;;;5058626;28;19963;-69
2023/03/06 08:35:04;;;;;;;;;;;;;;;;;;5065295;28;20037;-69
2023/03/06 08:37:30;;;;;;;;;;;;;;;;;;5039516;28;20604;-69
2023/03/06 08:39:56;;;;;;;;;;;;;;;;;;5034304;28;20036;-68
2023/03/06 08:42:22;;;;;;;;;;;;;;;;;;5038986;28;19916;-69
2023/03/06 08:44:48;;;;;;;;;;;;;;;;;;5062195;28;19935;-69
2023/03/06 08:47:14;;;;;;;;;;;;;;;;;;5072966;28;20360;-69
2023/03/06 08:49:41;;;;;;;;;;;;;;;;;;5072684;28;20001;-70
2023/03/06 08:52:07;;;;;;;;;;;;;;;;;;5054456;28;19908;-69
2023/03/06 08:54:33;;;;;;;;;;;;;;;;;;5064559;28;19927;-69
2023/03/06 08:56:59;;;;;;;;;;;;;;;;;;5070018;28;19952;-69
2023/03/06 08:59:25;;;;;;;;;;;;;;;;;;5067913;28;20009;-69
2023/03/06 09:01:51;;;;;;;;;;;;;;;;;;5073210;28;19913;-69
2023/03/06 09:04:17;;;;;;;;;;;;;;;;;;5055241;28;20276;-70
2023/03/06 09:06:44;;;;;;;;;;;;;;;;;;5071147;28;19909;-69
2023/03/06 09:09:10;;;;;;;;;;;;;;;;;;5048413;28;19916;-69
2023/03/06 09:11:41;;;;;;;;;;;;;;;;;;5053762;28;20510;-70
2023/03/06 09:14:10;;;;;;;;;;;;;;;;;;5051549;28;19909;-68
2023/03/06 09:16:38;;;;;;;;;;;;;;;;;;5034624;28;20474;-69
2023/03/06 09:19:04;;;;;;;;;;;;;;;;;;5056580;28;20331;-68
2023/03/06 09:21:30;;;;;;;;;;;;;;;;;;5071634;28;19917;-68
2023/03/06 09:23:56;;;;;;;;;;;;;;;;;;5090585;28;19908;-69
2023/03/06 09:26:22;;;;;;;;;;;;;;;;;;5088359;28;19951;-68
2023/03/06 09:28:48;;;;;;;;;;;;;;;;;;5077441;28;19917;-70
2023/03/06 09:31:14;;;;;;;;;;;;;;;;;;5069161;28;19912;-69
2023/03/06 09:33:40;;;;;;;;;;;;;;;;;;5068505;28;19944;-69
2023/03/06 09:36:06;;;;;;;;;;;;;;;;;;5070317;28;19913;-69
2023/03/06 09:38:32;;;;;;;;;;;;;;;;;;5086126;28;19970;-69
2023/03/06 09:41:01;;;;;;;;;;;;;;;;;;5091618;28;20000;-69
2023/03/06 09:43:27;;;;;;;;;;;;;;;;;;5090460;28;20325;-69
2023/03/06 09:45:53;;;;;;;;;;;;;;;;;;5086533;28;19916;-72
2023/03/06 09:48:19;;;;;;;;;;;;;;;;;;5091225;28;19912;-67
2023/03/06 09:50:45;;;;;;;;;;;;;;;;;;5092785;28;19968;-69
2023/03/06 09:53:14;;;;;;;;;;;;;;;;;;5093321;28;20308;-70
2023/03/06 09:58:03;;;;;;;;;;;;;;;;;;5089528;27;19916;-68
2023/03/06 10:03:04;;;;;;;;;;;;;;;;;;5088872;27;19913;-70
2023/03/06 10:08:24;;;;;;;;;;;;;;;;;;5105316;27;19916;-67
2023/03/06 10:10:50;;;;;;;;;;;;;;;;;;5106168;28;20391;-68
2023/03/06 10:14:22;;;;;;;;;;;;;;;;;;5144550;27;19911;-67
2023/03/06 10:17:28;;;;;;;;;;;;;;;;;;5081758;27;19917;-67
2023/03/06 10:19:54;;;;;;;;;;;;;;;;;;5085164;28;20584;-67
2023/03/06 10:22:20;;;;;;;;;;;;;;;;;;5084777;28;20006;-67
2023/03/06 10:27:34;;;;;;;;;;;;;;;;;;5068880;28;19917;-67
2023/03/06 10:30:00;;;;;;;;;;;;;;;;;;5061524;28;19974;-70
2023/03/06 10:32:26;;;;;;;;;;;;;;;;;;5061367;28;20003;-70
2023/03/06 10:34:52;;;;;;;;;;;;;;;;;;5061136;28;20074;-69
2023/03/06 10:37:18;;;;;;;;;;;;;;;;;;5049374;28;19909;-69
2023/03/06 10:41:18;;;;;;;;;;;;;;;;;;5090111;27;19923;-69
2023/03/06 10:43:44;;;;;;;;;;;;;;;;;;5089672;28;19913;-68
2023/03/06 10:46:10;;;;;;;;;;;;;;;;;;5080902;28;19920;-69
2023/03/06 10:48:36;;;;;;;;;;;;;;;;;;5065560;28;19921;-68
2023/03/06 10:52:18;;;;;;;;;;;;;;;;;;5167530;27;19921;-71
2023/03/06 10:54:44;;;;;;;;;;;;;;;;;;5163733;27;20067;-68
2023/03/06 10:57:10;;;;;;;;;;;;;;;;;;5176037;27;19914;-68
2023/03/06 10:59:36;;;;;;;;;;;;;;;;;;5181520;27;20425;-68
2023/03/06 11:02:02;;;;;;;;;;;;;;;;;;5170877;27;20601;-68
2023/03/06 11:04:28;;;;;;;;;;;;;;;;;;5166849;27;20280;-68
2023/03/06 11:07:50;;;;;;;;;;;;;;;;;;5078661;27;19925;-69
2023/03/06 11:12:31;;;;;;;;;;;;;;;;;;5052124;28;19920;-69
2023/03/06 11:14:57;;;;;;;;;;;;;;;;;;5057448;28;19920;-68
2023/03/06 11:17:23;;;;;;;;;;;;;;;;;;5051514;28;19913;-70
2023/03/06 11:19:49;;;;;;;;;;;;;;;;;;5065321;28;19919;-69
2023/03/06 11:22:15;;;;;;;;;;;;;;;;;;5066670;28;19909;-69
2023/03/06 11:26:20;;;;;;;;;;;;;;;;;;5086119;27;20380;-71
2023/03/06 11:31:09;;;;;;;;;;;;;;;;;;5087102;27;19920;-67
2023/03/06 11:33:35;;;;;;;;;;;;;;;;;;5086525;28;19916;-69
2023/03/06 11:36:01;;;;;;;;;;;;;;;;;;5086710;28;20450;-67
2023/03/06 11:39:37;;;;;;;;;;;;;;;;;;5086539;27;19916;-69
2023/03/06 11:42:03;;;;;;;;;;;;;;;;;;5086688;28;19912;-68
2023/03/06 11:44:29;;;;;;;;;;;;;;;;;;5088179;28;19912;-69
2023/03/06 11:46:55;;;;;;;;;;;;;;;;;;5089047;28;19916;-69
2023/03/06 11:49:21;;;;;;;;;;;;;;;;;;5088193;28;19908;-69
2023/03/06 11:51:47;;;;;;;;;;;;;;;;;;5090226;28;19917;-69
2023/03/06 11:54:13;;;;;;;;;;;;;;;;;;5090140;28;20006;-72
2023/03/06 11:56:39;;;;;;;;;;;;;;;;;;5089519;28;19919;-74
2023/03/06 11:59:06;;;;;;;;;;;;;;;;;;5089728;28;19928;-73
2023/03/06 12:02:09;;;;;;;;;;;;;;;;;;5171024;27;19934;-73
2023/03/06 12:05:34;;;;;;;;;;;;;;;;;;5110670;27;19920;-70
2023/03/06 12:09:37;;;;;;;;;;;;;;;;;;5109757;27;19912;-71
2023/03/06 12:13:53;;;;;;;;;;;;;;;;;;5109775;27;20397;-71
2023/03/06 12:17:01;;;;;;;;;;;;;;;;;;5151616;27;19992;-69
2023/03/06 12:20:13;;;;;;;;;;;;;;;;;;5107066;27;19916;-68
2023/03/06 12:23:48;;;;;;;;;;;;;;;;;;5103694;27;19946;-69
2023/03/06 12:26:14;;;;;;;;;;;;;;;;;;5088645;28;20384;-70
2023/03/06 12:36:17;;;;;;;;;;;;;;;;;;5083690;28;20296;-71
2023/03/06 12:38:42;;;;;;;;;;;;;;;;;;5073608;28;19913;-70
2023/03/06 12:46:27;;;;;;;;;;;;;;;;;;5090082;27;19912;-70
2023/03/06 12:48:53;;;;;;;;;;;;;;;;;;5088995;28;19966;-69
2023/03/06 12:51:19;;;;;;;;;;;;;;;;;;5088682;28;20340;-71
2023/03/06 12:53:44;;;;;;;;;;;;;;;;;;5089081;28;20347;-70
2023/03/06 12:57:36;;;;;;;;;;;;;;;;;;5109126;27;19930;-73
2023/03/06 13:00:02;;;;;;;;;;;;;;;;;;5110236;28;19916;-70
2023/03/06 13:02:28;;;;;;;;;;;;;;;;;;5110577;28;19908;-71
2023/03/06 13:09:40;;;;;;;;;;;;;;;;;;5107337;27;20304;-70
2023/03/06 13:13:50;;;;;;;;;;;;;;;;;;5106388;27;19920;-71
2023/03/06 13:23:19;;;;;;;;;;;;;;;;;;5106091;27;19916;-72
2023/03/06 13:25:45;;;;;;;;;;;;;;;;;;5108249;28;19947;-68
2023/03/06 13:29:35;;;;;;;;;;;;;;;;;;5065077;28;19921;-70
2023/03/06 13:33:24;;;;;;;;;;;;;;;;;;4966103;28;19925;-73
2023/03/06 13:35:50;;;;;;;;;;;;;;;;;;4966778;28;19914;-69
2023/03/06 13:39:16;;;;;;;;;;;;;;;;;;5107938;27;19912;-70
2023/03/06 13:41:42;;;;;;;;;;;;;;;;;;5108910;28;20401;-68
2023/03/06 13:44:08;;;;;;;;;;;;;;;;;;5107893;28;19919;-69
2023/03/06 13:52:47;;;;;;;;;;;;;;;;;;5108626;27;19920;-67
2023/03/06 13:55:12;;;;;;;;;;;;;;;;;;5084891;28;20046;-68
2023/03/06 13:57:38;;;;;;;;;;;;;;;;;;5086166;28;20182;-67
2023/03/06 14:00:05;;;;;;;;;;;;;;;;;;5087262;28;19908;-67
2023/03/06 14:02:31;;;;;;;;;;;;;;;;;;5085282;28;19915;-66
2023/03/06 14:07:13;;;;;;;;;;;;;;;;;;5087653;27;20304;-66
2023/03/06 14:12:41;;;;;;;;;;;;;;;;;;5109489;27;20311;-66
2023/03/06 14:16:39;;;;;;;;;;;;;;;;;;5088917;27;20295;-67
2023/03/06 14:22:58;;;;;;;;;;;;;;;;;;5088823;27;19917;-66
2023/03/06 14:25:24;;;;;;;;;;;;;;;;;;5087997;28;19912;-66
2023/03/06 14:28:03;;;;;;;;;;;;;;;;;;5111259;27;19916;-66
2023/03/06 14:30:29;;;;;;;;;;;;;;;;;;5111261;28;20282;-66
2023/03/06 14:37:10;;;;;;;;;;;;;;;;;;5111777;27;19916;-66
2023/03/06 14:42:58;;;;;;;;;;;;;;;;;;5112222;27;19922;-67
2023/03/06 14:45:24;;;;;;;;;;;;;;;;;;5111257;28;20350;-67
2023/03/06 14:50:10;;;;;;;;;;;;;;;;;;5111871;27;20379;-66
2023/03/06 14:52:36;;;;;;;;;;;;;;;;;;5110660;28;19995;-66
2023/03/06 14:55:02;;;;;;;;;;;;;;;;;;5110363;28;20329;-66
2023/03/06 14:57:28;;;;;;;;;;;;;;;;;;5109922;28;20283;-66
2023/03/06 15:01:20;;;;;;;;;;;;;;;;;;5112538;27;19923;-66
2023/03/06 15:05:54;;;;;;;;;;;;;;;;;;5091198;27;19916;-66
2023/03/06 15:08:20;;;;;;;;;;;;;;;;;;5091380;28;20003;-67
2023/03/06 15:10:45;;;;;;;;;;;;;;;;;;5091237;28;20282;-67
2023/03/06 15:17:34;;;;;;;;;;;;;;;;;;5112592;27;19923;-66
2023/03/06 15:20:43;;;;;;;;;;;;;;;;;;5112051;27;20265;-66
2023/03/06 15:23:09;;;;;;;;;;;;;;;;;;5112012;28;19912;-67
2023/03/06 15:26:05;;;;;;;;;;;;;;;;;;5111860;27;19912;-67
2023/03/06 15:28:48;;;;;;;;;;;;;;;;;;5112155;27;19912;-67
2023/03/06 15:31:20;;;;;;;;;;;;;;;;;;5111682;28;19994;-67
2023/03/06 15:33:46;;;;;;;;;;;;;;;;;;5111625;28;20343;-66
2023/03/06 15:36:12;;;;;;;;;;;;;;;;;;5110245;28;19915;-67
2023/03/06 15:40:36;;;;;;;;;;;;;;;;;;5111642;27;19915;-67
2023/03/06 15:44:02;;;;;;;;;;;;;;;;;;5092008;27;20264;-67
2023/03/06 15:46:28;;;;;;;;;;;;;;;;;;5091431;28;20007;-67
2023/03/06 15:48:54;;;;;;;;;;;;;;;;;;5089920;28;19908;-67
2023/03/06 15:51:20;;;;;;;;;;;;;;;;;;5091348;28;19909;-67
2023/03/06 15:53:46;;;;;;;;;;;;;;;;;;5090988;28;19999;-67
2023/03/06 15:56:12;;;;;;;;;;;;;;;;;;5090275;28;19962;-67
2023/03/06 15:58:38;;;;;;;;;;;;;;;;;;5089813;28;20318;-67
2023/03/06 16:01:04;;;;;;;;;;;;;;;;;;5090672;28;19908;-67
2023/03/06 16:03:30;;;;;;;;;;;;;;;;;;5091499;28;19917;-67
2023/03/06 16:05:56;;;;;;;;;;;;;;;;;;5090934;28;19923;-68
2023/03/06 16:08:22;;;;;;;;;;;;;;;;;;5090569;28;19912;-67
2023/03/06 16:10:50;;;;;;;;;;;;;;;;;;5089598;28;19961;-67
2023/03/06 16:13:16;;;;;;;;;;;;;;;;;;5091089;28;19908;-68
2023/03/06 16:15:42;;;;;;;;;;;;;;;;;;5090392;28;19912;-68
2023/03/06 16:18:08;;;;;;;;;;;;;;;;;;5090778;28;19908;-67
2023/03/06 16:20:34;;;;;;;;;;;;;;;;;;5089421;28;20367;-67
2023/03/06 16:23:00;;;;;;;;;;;;;;;;;;5088851;28;20364;-67
2023/03/06 16:25:26;;;;;;;;;;;;;;;;;;5089352;28;20384;-68
2023/03/06 16:27:57;;;;;;;;;;;;;;;;;;5090836;28;19919;-68
2023/03/06 16:30:23;;;;;;;;;;;;;;;;;;5090102;28;19999;-68
2023/03/06 16:32:49;;;;;;;;;;;;;;;;;;5090494;28;19952;-67
2023/03/06 16:35:15;;;;;;;;;;;;;;;;;;5089088;28;19908;-68
2023/03/06 16:37:41;;;;;;;;;;;;;;;;;;5089866;28;20396;-68
2023/03/06 16:40:08;;;;;;;;;;;;;;;;;;5090428;28;19915;-67
2023/03/06 16:42:34;;;;;;;;;;;;;;;;;;5098400;28;19920;-68
2023/03/06 16:45:00;;;;;;;;;;;;;;;;;;5091915;28;19908;-69
2023/03/06 16:47:26;;;;;;;;;;;;;;;;;;5110537;28;19908;-67
2023/03/06 16:49:56;;;;;;;;;;;;;;;;;;5110152;28;20383;-67
2023/03/06 16:52:22;;;;;;;;;;;;;;;;;;5110366;28;19911;-74
2023/03/06 16:54:48;;;;;;;;;;;;;;;;;;5081634;28;19916;-67
2023/03/06 16:57:14;;;;;;;;;;;;;;;;;;5096286;28;19908;-67
2023/03/06 16:59:40;;;;;;;;;;;;;;;;;;5078539;28;20007;-67
2023/03/06 17:02:06;;;;;;;;;;;;;;;;;;5078398;28;20287;-67
2023/03/06 17:04:32;;;;;;;;;;;;;;;;;;5096213;28;20360;-73
2023/03/06 17:06:58;;;;;;;;;;;;;;;;;;5078375;28;19974;-68
2023/03/06 17:09:24;;;;;;;;;;;;;;;;;;5096267;28;19987;-68
2023/03/06 17:11:50;;;;;;;;;;;;;;;;;;5077822;28;19908;-67
2023/03/06 17:14:16;;;;;;;;;;;;;;;;;;5096434;28;19915;-67
2023/03/06 17:16:42;;;;;;;;;;;;;;;;;;5078232;28;19916;-68
2023/03/06 17:19:08;;;;;;;;;;;;;;;;;;5077777;28;19915;-68
2023/03/06 17:21:36;;;;;;;;;;;;;;;;;;5096293;28;20272;-67
2023/03/06 17:24:02;;;;;;;;;;;;;;;;;;5078101;28;20281;-68
2023/03/06 17:26:28;;;;;;;;;;;;;;;;;;5095820;28;19909;-68
2023/03/06 17:28:54;;;;;;;;;;;;;;;;;;5078036;28;19908;-68
2023/03/06 17:31:20;;;;;;;;;;;;;;;;;;5096199;28;19912;-68
2023/03/06 17:33:47;;;;;;;;;;;;;;;;;;5095913;28;20353;-68
2023/03/06 17:36:16;;;;;;;;;;;;;;;;;;5078167;28;20303;-67
2023/03/06 17:38:42;;;;;;;;;;;;;;;;;;5077789;28;19958;-67
2023/03/06 17:41:08;;;;;;;;;;;;;;;;;;5095525;28;19912;-67
2023/03/06 17:43:34;;;;;;;;;;;;;;;;;;5095608;28;19920;-67
2023/03/06 17:45:59;;;;;;;;;;;;;;;;;;5095739;28;19968;-67
2023/03/06 17:48:25;;;;;;;;;;;;;;;;;;5095628;28;19915;-67
2023/03/06 17:50:51;;;;;;;;;;;;;;;;;;5077484;28;19912;-67
2023/03/06 17:53:17;;;;;;;;;;;;;;;;;;5095317;28;19991;-67
2023/03/06 17:55:44;;;;;;;;;;;;;;;;;;5095659;28;19908;-67
2023/03/06 17:58:10;;;;;;;;;;;;;;;;;;5077358;28;20011;-66
2023/03/06 18:00:35;;;;;;;;;;;;;;;;;;5077247;28;19908;-68
2023/03/06 18:03:01;;;;;;;;;;;;;;;;;;5077284;28;19926;-67
2023/03/06 18:05:27;;;;;;;;;;;;;;;;;;5076675;28;19908;-67
2023/03/06 18:07:53;;;;;;;;;;;;;;;;;;5094979;28;20295;-67
2023/03/06 18:10:19;;;;;;;;;;;;;;;;;;5095324;28;20070;-67
2023/03/06 18:12:45;;;;;;;;;;;;;;;;;;5095304;28;19912;-67
2023/03/06 18:15:11;;;;;;;;;;;;;;;;;;5094377;28;20150;-65
2023/03/06 18:17:37;;;;;;;;;;;;;;;;;;5077042;28;19915;-65
2023/03/06 18:20:03;;;;;;;;;;;;;;;;;;5095141;28;19908;-65